createdAt,value
2019-02-15T00:00:57.359Z,6.63
2019-02-15T00:03:26.813Z,7.30
2019-02-15T00:05:56.295Z,10.37
2019-02-15T00:08:26.028Z,8.08
2019-02-15T00:10:55.460Z,9.27
2019-02-15T00:13:26.068Z,9.14
2019-02-15T00:15:55.505Z,9.37
2019-02-15T00:18:33.413Z,8.94
2019-02-15T00:21:04.533Z,13.10
2019-02-15T00:23:33.990Z,9.30
2019-02-15T00:26:03.457Z,9.20
2019-02-15T00:28:32.915Z,6.97
2019-02-15T00:31:02.363Z,8.27
2019-02-15T00:33:31.834Z,8.33
2019-02-15T00:36:01.282Z,8.70
2019-02-15T00:38:30.764Z,12.20
2019-02-15T00:41:00.212Z,7.40
2019-02-15T00:43:29.681Z,9.20
2019-02-15T00:46:15.604Z,8.83
2019-02-15T00:48:53.782Z,10.10
2019-02-15T00:51:40.546Z,8.90
2019-02-15T00:54:20.736Z,16.27
2019-02-15T00:57:06.613Z,8.77
2019-02-15T00:59:49.310Z,9.40
2019-02-15T01:02:22.867Z,10.10
2019-02-15T01:04:57.204Z,12.30
2019-02-15T01:07:28.328Z,7.97
2019-02-15T01:09:59.422Z,9.53
2019-02-15T01:12:30.538Z,7.40
2019-02-15T01:14:59.999Z,11.40
2019-02-15T01:17:29.479Z,7.50
2019-02-15T01:19:58.934Z,9.40
2019-02-15T01:22:28.380Z,9.67
2019-02-15T01:24:58.529Z,9.50
2019-02-15T01:27:29.625Z,8.90
2019-02-15T01:30:00.745Z,9.83
2019-02-15T01:32:40.289Z,9.67
2019-02-15T01:35:14.318Z,12.23
2019-02-15T01:37:45.417Z,9.60
2019-02-15T01:40:22.318Z,9.40
2019-02-15T01:42:53.436Z,8.20
2019-02-15T01:45:24.533Z,9.50
2019-02-15T01:47:54.002Z,8.90
2019-02-15T01:50:23.461Z,9.97
2019-02-15T01:52:52.922Z,7.00
2019-02-15T01:55:22.401Z,9.93
2019-02-15T01:57:51.872Z,9.13
2019-02-15T02:00:22.914Z,8.20
2019-02-15T02:02:52.373Z,6.23
2019-02-15T02:05:21.850Z,8.47
2019-02-15T02:07:51.305Z,8.27
2019-02-15T02:10:20.781Z,7.33
2019-02-15T02:12:50.247Z,7.90
2019-02-15T02:15:19.971Z,7.20
2019-02-15T02:17:49.429Z,9.43
2019-02-15T02:20:18.905Z,9.27
2019-02-15T02:22:48.362Z,8.23
2019-02-15T02:25:17.859Z,10.63
2019-02-15T02:27:47.330Z,10.80
2019-02-15T02:30:16.878Z,9.13
2019-02-15T02:32:46.335Z,7.50
2019-02-15T02:35:15.809Z,7.80
2019-02-15T02:37:45.335Z,7.50
2019-02-15T02:40:14.835Z,9.80
2019-02-15T02:42:44.344Z,8.17
2019-02-15T02:45:13.816Z,6.77
2019-02-15T02:47:43.304Z,9.70
2019-02-15T02:50:12.748Z,8.93
2019-02-15T02:52:42.229Z,7.67
2019-02-15T02:55:11.706Z,9.23
2019-02-15T02:57:41.158Z,7.67
2019-02-15T03:00:10.958Z,9.13
2019-02-15T03:02:40.397Z,9.38
2019-02-15T03:05:09.945Z,8.23
2019-02-15T03:07:39.402Z,8.70
2019-02-15T03:10:09.111Z,6.90
2019-02-15T03:12:38.584Z,9.60
2019-02-15T03:15:09.038Z,8.10
2019-02-15T03:17:38.506Z,8.08
2019-02-15T03:20:08.721Z,9.90
2019-02-15T03:22:38.216Z,8.93
2019-02-15T03:25:07.731Z,8.40
2019-02-15T03:27:37.177Z,7.50
2019-02-15T03:30:09.761Z,7.13
2019-02-15T03:32:39.220Z,8.55
2019-02-15T03:35:10.333Z,6.53
2019-02-15T03:37:53.222Z,5.90
2019-02-15T03:40:24.334Z,6.90
2019-02-15T03:42:53.802Z,7.58
2019-02-15T03:45:23.280Z,8.20
2019-02-15T03:47:52.750Z,8.73
2019-02-15T03:50:22.232Z,7.03
2019-02-15T03:52:51.676Z,8.07
2019-02-15T03:55:21.205Z,8.80
2019-02-15T03:57:50.689Z,8.40
2019-02-15T04:00:20.160Z,8.40
2019-02-15T04:02:49.709Z,6.20
2019-02-15T04:05:19.162Z,7.97
2019-02-15T04:07:48.638Z,5.70
2019-02-15T04:10:18.094Z,5.87
2019-02-15T04:12:47.574Z,5.00
2019-02-15T04:15:17.028Z,8.73
2019-02-15T04:17:46.509Z,8.33
2019-02-15T04:20:15.962Z,8.50
2019-02-15T04:22:45.577Z,7.00
2019-02-15T04:25:15.039Z,8.80
2019-02-15T04:27:44.526Z,7.55
2019-02-15T04:30:13.979Z,7.53
2019-02-15T04:32:43.449Z,6.67
2019-02-15T04:35:12.907Z,7.23
2019-02-15T04:37:42.392Z,8.68
2019-02-15T04:40:11.849Z,9.55
2019-02-15T04:42:41.323Z,7.28
2019-02-15T04:45:10.863Z,9.80
2019-02-15T04:47:40.346Z,8.50
2019-02-15T04:50:10.310Z,9.43
2019-02-15T04:52:39.795Z,10.18
2019-02-15T04:55:09.249Z,10.33
2019-02-15T04:57:38.744Z,6.80
2019-02-15T05:00:09.845Z,6.90
2019-02-15T05:02:39.300Z,7.50
2019-02-15T05:05:08.994Z,10.10
2019-02-15T05:07:38.479Z,9.25
2019-02-15T05:10:08.010Z,7.60
2019-02-15T05:12:37.511Z,8.40
2019-02-15T05:15:08.702Z,7.50
2019-02-15T05:17:38.190Z,9.30
2019-02-15T05:20:08.607Z,9.43
2019-02-15T05:22:38.079Z,10.30
2019-02-15T05:25:07.608Z,6.53
2019-02-15T05:27:37.141Z,7.85
2019-02-15T05:30:08.633Z,6.90
2019-02-15T05:32:38.116Z,5.75
2019-02-15T05:35:07.814Z,6.97
2019-02-15T05:37:37.327Z,8.40
2019-02-15T05:40:07.524Z,5.95
2019-02-15T05:42:37.009Z,5.92
2019-02-15T05:45:07.384Z,8.30
2019-02-15T05:47:36.831Z,11.43
2019-02-15T05:50:07.519Z,8.07
2019-02-15T05:52:36.981Z,6.37
2019-02-15T05:55:07.298Z,8.77
2019-02-15T05:57:37.007Z,8.05
2019-02-15T06:00:10.190Z,5.40
2019-02-15T06:02:39.642Z,7.30
2019-02-15T06:05:09.993Z,7.43
2019-02-15T06:07:39.444Z,6.92
2019-02-15T06:10:09.595Z,6.75
2019-02-15T06:12:39.068Z,6.85
2019-02-15T06:15:15.068Z,8.63
2019-02-15T06:17:40.046Z,6.62
2019-02-15T06:20:09.527Z,7.50
2019-02-15T06:22:38.986Z,9.68
2019-02-15T06:25:08.538Z,8.65
2019-02-15T06:27:38.004Z,8.40
2019-02-15T06:30:09.484Z,7.07
2019-02-15T06:32:38.946Z,6.37
2019-02-15T06:35:08.497Z,7.90
2019-02-15T06:37:37.953Z,6.70
2019-02-15T06:40:07.874Z,7.87
2019-02-15T06:42:37.339Z,6.33
2019-02-15T06:45:07.921Z,8.17
2019-02-15T06:47:37.367Z,9.10
2019-02-15T06:50:08.379Z,7.67
2019-02-15T06:52:37.833Z,9.43
2019-02-15T06:55:08.066Z,6.13
2019-02-15T06:57:37.517Z,8.20
2019-02-15T07:00:16.177Z,7.37
2019-02-15T07:02:49.703Z,6.08
2019-02-15T07:05:20.818Z,7.43
2019-02-15T07:07:50.276Z,6.78
2019-02-15T07:10:19.825Z,8.67
2019-02-15T07:12:49.272Z,8.45
2019-02-15T07:15:18.753Z,8.87
2019-02-15T07:17:48.278Z,11.53
2019-02-15T07:20:17.769Z,8.33
2019-02-15T07:22:47.295Z,10.48
2019-02-15T07:25:16.771Z,6.60
2019-02-15T07:27:46.229Z,8.50
2019-02-15T07:30:15.888Z,12.60
2019-02-15T07:32:45.410Z,7.10
2019-02-15T07:35:14.885Z,12.93
2019-02-15T07:37:44.415Z,11.83
2019-02-15T07:40:13.931Z,7.50
2019-02-15T07:42:43.407Z,10.93
2019-02-15T07:45:12.937Z,8.40
2019-02-15T07:47:42.410Z,9.83
2019-02-15T07:50:15.891Z,13.97
2019-02-15T07:52:45.357Z,8.77
2019-02-15T07:55:14.817Z,12.43
2019-02-15T07:57:44.283Z,9.83
2019-02-15T08:00:15.750Z,9.57
2019-02-15T08:02:45.227Z,11.10
2019-02-15T08:05:14.677Z,8.90
2019-02-15T08:07:44.159Z,13.53
2019-02-15T08:10:13.678Z,9.60
2019-02-15T08:12:43.152Z,8.77
2019-02-15T08:15:12.678Z,14.30
2019-02-15T08:17:42.145Z,7.13
2019-02-15T08:20:12.281Z,10.07
2019-02-15T08:22:41.765Z,12.85
2019-02-15T08:25:11.452Z,8.23
2019-02-15T08:27:40.933Z,10.90
2019-02-15T08:30:12.103Z,7.73
2019-02-15T08:32:41.577Z,9.55
2019-02-15T08:35:11.906Z,12.37
2019-02-15T08:37:41.387Z,8.35
2019-02-15T08:40:11.883Z,10.30
2019-02-15T08:42:41.349Z,7.63
2019-02-15T08:45:13.045Z,8.47
2019-02-15T08:47:42.509Z,6.97
2019-02-15T08:50:12.907Z,8.07
2019-02-15T08:52:42.372Z,7.23
2019-02-15T08:55:12.666Z,5.53
2019-02-15T08:57:42.127Z,9.47
2019-02-15T09:00:14.970Z,8.30
2019-02-15T09:02:44.425Z,5.83
2019-02-15T09:05:14.162Z,7.30
2019-02-15T09:07:43.625Z,6.80
2019-02-15T09:10:14.701Z,8.57
2019-02-15T09:12:44.160Z,5.67
2019-02-15T09:15:20.938Z,6.60
2019-02-15T09:17:50.390Z,6.53
2019-02-15T09:20:19.837Z,7.63
2019-02-15T09:22:49.313Z,6.80
2019-02-15T09:25:18.761Z,8.17
2019-02-15T09:28:05.506Z,7.80
2019-02-15T09:30:34.963Z,7.25
2019-02-15T09:33:04.408Z,6.60
2019-02-15T09:35:33.949Z,5.63
2019-02-15T09:38:03.405Z,7.20
2019-02-15T09:40:32.892Z,5.30
2019-02-15T09:43:02.342Z,7.30
2019-02-15T09:45:33.018Z,7.57
2019-02-15T09:48:02.551Z,8.43
2019-02-15T09:50:31.997Z,6.30
2019-02-15T09:53:01.621Z,6.90
2019-02-15T09:55:31.085Z,6.80
2019-02-15T09:58:00.549Z,6.40
2019-02-15T10:00:30.002Z,6.27
2019-02-15T10:02:59.478Z,5.77
2019-02-15T10:05:28.951Z,7.30
2019-02-15T10:07:58.399Z,6.37
2019-02-15T10:10:27.867Z,6.07
2019-02-15T10:12:57.346Z,5.07
2019-02-15T10:15:26.800Z,7.13
2019-02-15T10:17:56.256Z,7.72
2019-02-15T10:20:25.731Z,8.30
2019-02-15T10:22:55.188Z,10.07
2019-02-15T10:25:24.669Z,7.73
2019-02-15T10:27:54.113Z,9.13
2019-02-15T10:30:23.573Z,8.60
2019-02-15T10:32:53.047Z,7.27
2019-02-15T10:35:22.526Z,7.40
2019-02-15T10:37:51.988Z,9.50
2019-02-15T10:40:21.462Z,8.43
2019-02-15T10:42:50.978Z,9.15
2019-02-15T10:45:20.644Z,7.60
2019-02-15T10:47:50.099Z,8.53
2019-02-15T10:50:19.626Z,8.67
2019-02-15T10:52:49.156Z,7.10
2019-02-15T10:55:18.632Z,8.97
2019-02-15T10:57:48.150Z,7.37
2019-02-15T11:00:21.984Z,8.30
2019-02-15T11:02:51.531Z,7.40
2019-02-15T11:05:20.982Z,7.10
2019-02-15T11:07:50.528Z,5.97
2019-02-15T11:10:19.995Z,8.37
2019-02-15T11:12:49.452Z,12.90
2019-02-15T11:15:19.003Z,8.40
2019-02-15T11:17:48.479Z,11.10
2019-02-15T11:20:19.046Z,8.37
2019-02-15T11:22:48.501Z,7.87
2019-02-15T11:25:17.992Z,11.00
2019-02-15T11:27:47.449Z,7.10
2019-02-15T11:30:17.656Z,11.20
2019-02-15T11:32:47.128Z,9.60
2019-02-15T11:35:16.587Z,9.20
2019-02-15T11:37:46.040Z,9.90
2019-02-15T11:40:17.134Z,5.50
2019-02-15T11:42:46.584Z,12.00
2019-02-15T11:45:16.506Z,5.33
2019-02-15T11:47:46.045Z,7.30
2019-02-15T11:50:16.045Z,8.70
2019-02-15T11:52:45.517Z,6.40
2019-02-15T11:55:15.056Z,6.00
2019-02-15T11:57:44.597Z,9.17
2019-02-15T12:00:20.387Z,4.60
2019-02-15T12:02:49.462Z,5.53
2019-02-15T12:05:18.946Z,4.00
2019-02-15T12:07:48.398Z,3.50
2019-02-15T12:10:17.855Z,4.10
2019-02-15T12:12:47.332Z,5.93
2019-02-15T12:15:16.792Z,5.53
2019-02-15T12:17:46.250Z,8.10
2019-02-15T12:20:16.205Z,5.20
2019-02-15T12:22:45.664Z,4.63
2019-02-15T12:25:15.121Z,6.13
2019-02-15T12:27:44.596Z,6.33
2019-02-15T12:30:16.263Z,4.22
2019-02-15T12:32:45.721Z,4.83
2019-02-15T12:35:15.198Z,4.97
2019-02-15T12:37:44.659Z,4.63
2019-02-15T12:40:14.556Z,5.07
2019-02-15T12:42:44.037Z,5.33
2019-02-15T12:45:17.069Z,8.20
2019-02-15T12:47:46.564Z,6.40
2019-02-15T12:50:21.151Z,5.10
2019-02-15T12:52:50.606Z,5.43
2019-02-15T12:55:20.139Z,7.27
2019-02-15T12:57:49.614Z,4.50
2019-02-15T13:00:19.248Z,4.97
2019-02-15T13:02:48.702Z,5.67
2019-02-15T13:05:18.189Z,5.08
2019-02-15T13:07:47.642Z,4.10
2019-02-15T13:10:18.813Z,3.87
2019-02-15T13:12:48.301Z,5.37
2019-02-15T13:15:17.769Z,5.50
2019-02-15T13:17:47.227Z,4.70
2019-02-15T13:20:16.706Z,8.03
2019-02-15T13:22:46.159Z,4.13
2019-02-15T13:25:15.713Z,6.90
2019-02-15T13:27:45.173Z,5.10
2019-02-15T13:30:16.679Z,8.37
2019-02-15T13:32:46.122Z,4.10
2019-02-15T13:35:24.398Z,5.12
2019-02-15T13:37:53.858Z,4.70
2019-02-15T13:40:23.374Z,5.80
2019-02-15T13:42:52.871Z,5.93
2019-02-15T13:45:22.590Z,3.90
2019-02-15T13:47:52.071Z,6.53
2019-02-15T13:50:21.800Z,6.20
2019-02-15T13:52:51.252Z,5.30
2019-02-15T13:55:20.733Z,4.10
2019-02-15T13:57:50.190Z,5.27
2019-02-15T14:00:19.727Z,12.17
2019-02-15T14:02:49.205Z,4.80
2019-02-15T14:05:18.671Z,3.97
2019-02-15T14:07:48.146Z,5.07
2019-02-15T14:10:17.605Z,4.50
2019-02-15T14:12:47.079Z,3.27
2019-02-15T14:15:16.604Z,5.10
2019-02-15T14:17:48.350Z,4.40
2019-02-15T14:20:17.270Z,9.78
2019-02-15T14:22:46.733Z,3.60
2019-02-15T14:25:16.174Z,3.52
2019-02-15T14:27:45.659Z,4.70
2019-02-15T14:30:15.556Z,4.42
2019-02-15T14:32:45.008Z,3.70
2019-02-15T14:35:17.462Z,5.30
2019-02-15T14:37:47.144Z,5.60
2019-02-15T14:40:16.581Z,4.77
2019-02-15T14:42:46.054Z,1.63
2019-02-15T14:45:16.115Z,5.17
2019-02-15T14:47:54.577Z,4.83
2019-02-15T14:50:17.027Z,6.90
2019-02-15T14:52:46.473Z,5.30
2019-02-15T14:55:16.019Z,5.77
2019-02-15T14:57:45.493Z,5.70
2019-02-15T15:00:16.089Z,4.67
2019-02-15T15:02:45.556Z,10.17
2019-02-15T15:05:15.092Z,4.97
2019-02-15T15:07:44.638Z,6.20
2019-02-15T15:10:14.110Z,3.07
2019-02-15T15:12:43.571Z,4.10
2019-02-15T15:15:15.997Z,6.23
2019-02-15T15:17:45.457Z,4.97
2019-02-15T15:20:15.109Z,6.10
2019-02-15T15:22:44.570Z,6.07
2019-02-15T15:25:17.219Z,6.03
2019-02-15T15:27:46.693Z,5.03
2019-02-15T15:30:19.130Z,4.43
2019-02-15T15:32:48.588Z,4.10
2019-02-15T15:35:18.060Z,2.87
2019-02-15T15:37:47.514Z,4.00
2019-02-15T15:40:18.235Z,5.90
2019-02-15T15:42:47.696Z,4.23
2019-02-15T15:45:17.158Z,4.87
2019-02-15T15:47:47.203Z,4.73
2019-02-15T15:50:16.666Z,4.53
2019-02-15T15:52:46.142Z,4.43
2019-02-15T15:55:17.667Z,6.53
2019-02-15T15:57:46.792Z,5.07
2019-02-15T16:00:16.910Z,4.40
2019-02-15T16:02:46.362Z,3.43
2019-02-15T16:05:15.842Z,4.07
2019-02-15T16:07:45.319Z,4.57
2019-02-15T16:10:15.774Z,4.90
2019-02-15T16:12:45.264Z,3.10
2019-02-15T16:15:15.184Z,8.23
2019-02-15T16:17:44.630Z,6.95
2019-02-15T16:20:14.861Z,5.00
2019-02-15T16:22:44.378Z,5.70
2019-02-15T16:25:13.841Z,5.00
2019-02-15T16:27:43.683Z,6.03
2019-02-15T16:30:16.924Z,3.47
2019-02-15T16:32:46.389Z,4.78
2019-02-15T16:35:15.863Z,4.53
2019-02-15T16:37:45.384Z,3.63
2019-02-15T16:40:16.021Z,5.03
2019-02-15T16:42:45.556Z,2.70
2019-02-15T16:45:18.340Z,6.40
2019-02-15T16:47:47.790Z,3.60
2019-02-15T16:50:17.270Z,7.40
2019-02-15T16:52:46.738Z,5.67
2019-02-15T16:55:16.199Z,5.30
2019-02-15T16:57:45.678Z,4.57
2019-02-15T17:00:15.449Z,3.03
2019-02-15T17:02:44.951Z,3.87
2019-02-15T17:05:14.505Z,4.77
2019-02-15T17:07:43.936Z,4.23
2019-02-15T17:10:13.532Z,5.47
2019-02-15T17:12:43.006Z,5.22
2019-02-15T17:15:14.579Z,6.10
2019-02-15T17:17:44.053Z,6.17
2019-02-15T17:20:13.585Z,4.33
2019-02-15T17:22:43.049Z,5.40
2019-02-15T17:25:12.976Z,10.23
2019-02-15T17:27:42.427Z,4.20
2019-02-15T17:30:12.698Z,4.47
2019-02-15T17:32:42.437Z,5.40
2019-02-15T17:35:12.532Z,3.90
2019-02-15T17:37:41.995Z,4.50
2019-02-15T17:40:16.276Z,2.60
2019-02-15T17:42:45.737Z,3.03
2019-02-15T17:45:15.267Z,7.13
2019-02-15T17:47:44.725Z,3.80
2019-02-15T17:50:14.448Z,8.20
2019-02-15T17:52:43.896Z,6.10
2019-02-15T17:55:13.609Z,6.53
2019-02-15T17:57:43.142Z,4.00
2019-02-15T18:00:17.761Z,6.50
2019-02-15T18:02:47.211Z,6.10
2019-02-15T18:05:16.720Z,5.93
2019-02-15T18:07:50.950Z,5.37
2019-02-15T18:10:20.408Z,4.13
2019-02-15T18:12:49.879Z,5.43
2019-02-15T18:15:19.440Z,5.33
2019-02-15T18:17:48.889Z,5.87
2019-02-15T18:20:18.375Z,6.13
2019-02-15T18:22:47.889Z,5.20
2019-02-15T18:25:17.347Z,5.50
2019-02-15T18:27:46.994Z,4.47
2019-02-15T18:30:17.964Z,6.10
2019-02-15T18:32:47.735Z,4.27
2019-02-15T18:35:17.213Z,4.05
2019-02-15T18:37:46.656Z,3.93
2019-02-15T18:40:16.141Z,4.93
2019-02-15T18:42:45.599Z,6.40
2019-02-15T18:45:16.764Z,7.27
2019-02-15T18:47:46.302Z,11.10
2019-02-15T18:50:15.778Z,15.27
2019-02-15T18:52:45.227Z,15.67
2019-02-15T18:55:14.686Z,13.43
2019-02-15T18:57:44.143Z,15.97
2019-02-15T19:00:17.741Z,16.07
2019-02-15T19:02:49.955Z,15.57
2019-02-15T19:05:19.415Z,13.70
2019-02-15T19:07:48.885Z,13.90
2019-02-15T19:10:21.454Z,12.77
2019-02-15T19:12:50.926Z,11.53
2019-02-15T19:15:20.411Z,12.60
2019-02-15T19:17:49.893Z,16.13
2019-02-15T19:20:19.420Z,16.87
2019-02-15T19:22:48.874Z,13.40
2019-02-15T19:25:20.675Z,15.67
2019-02-15T19:27:50.127Z,13.27
2019-02-15T19:30:32.644Z,12.60
2019-02-15T19:33:02.101Z,9.17
2019-02-15T19:35:31.553Z,10.73
2019-02-15T19:38:01.025Z,6.37
2019-02-15T19:40:30.499Z,10.13
2019-02-15T19:43:04.687Z,8.03
2019-02-15T19:45:34.332Z,10.37
2019-02-15T19:48:03.796Z,8.38
2019-02-15T19:50:33.239Z,7.97
2019-02-15T19:53:02.719Z,7.13
2019-02-15T19:55:32.204Z,5.97
2019-02-15T19:58:01.656Z,8.03
2019-02-15T20:00:31.107Z,6.87
2019-02-15T20:03:00.582Z,7.70
2019-02-15T20:05:30.108Z,6.27
2019-02-15T20:07:59.567Z,7.20
2019-02-15T20:10:29.615Z,6.00
2019-02-15T20:13:00.769Z,6.23
2019-02-15T20:15:30.397Z,5.70
2019-02-15T20:17:59.951Z,6.03
2019-02-15T20:20:29.406Z,6.40
2019-02-15T20:22:58.886Z,6.97
2019-02-15T20:25:28.331Z,6.47
2019-02-15T20:27:57.857Z,8.50
2019-02-15T20:30:27.330Z,5.45
2019-02-15T20:32:56.863Z,6.47
2019-02-15T20:35:26.336Z,5.08
2019-02-15T20:37:55.808Z,7.47
2019-02-15T20:40:25.519Z,5.40
2019-02-15T20:42:54.966Z,7.85
2019-02-15T20:45:24.883Z,7.30
2019-02-15T20:47:54.353Z,7.60
2019-02-15T20:50:23.785Z,7.30
2019-02-15T20:52:53.267Z,8.23
2019-02-15T20:55:22.960Z,9.57
2019-02-15T20:57:52.445Z,9.50
2019-02-15T21:00:28.018Z,6.27
2019-02-15T21:02:57.480Z,8.67
2019-02-15T21:05:26.954Z,8.10
2019-02-15T21:07:56.408Z,9.40
2019-02-15T21:10:25.886Z,10.80
2019-02-15T21:12:55.339Z,7.80
2019-02-15T21:15:24.805Z,11.07
2019-02-15T21:17:54.275Z,9.80
2019-02-15T21:20:24.629Z,10.30
2019-02-15T21:22:54.278Z,7.93
2019-02-15T21:25:23.743Z,8.17
2019-02-15T21:27:53.230Z,11.60
2019-02-15T21:30:22.756Z,9.23
2019-02-15T21:32:52.203Z,9.03
2019-02-15T21:35:21.688Z,11.10
2019-02-15T21:37:51.139Z,9.03
2019-02-15T21:40:20.667Z,9.30
2019-02-15T21:42:52.047Z,8.33
2019-02-15T21:45:21.350Z,9.28
2019-02-15T21:47:50.801Z,11.37
2019-02-15T21:50:20.258Z,9.65
2019-02-15T21:52:49.735Z,10.23
2019-02-15T21:55:19.196Z,10.87
2019-02-15T21:57:48.680Z,10.80
2019-02-15T22:00:21.561Z,9.13
2019-02-15T22:02:51.015Z,9.65
2019-02-15T22:05:20.493Z,7.47
2019-02-15T22:07:49.957Z,7.90
2019-02-15T22:10:19.415Z,8.90
2019-02-15T22:12:48.887Z,7.87
2019-02-15T22:15:18.818Z,8.28
2019-02-15T22:17:48.306Z,8.77
2019-02-15T22:20:26.384Z,7.90
2019-02-15T22:22:49.587Z,10.07
2019-02-15T22:25:19.055Z,9.90
2019-02-15T22:27:48.519Z,9.37
2019-02-15T22:30:21.489Z,8.40
2019-02-15T22:32:50.934Z,8.95
2019-02-15T22:35:20.413Z,7.80
2019-02-15T22:37:49.868Z,5.93
2019-02-15T22:40:31.796Z,6.45
2019-02-15T22:43:08.589Z,9.60
2019-02-15T22:45:38.047Z,5.70
2019-02-15T22:48:07.521Z,7.40
2019-02-15T22:50:36.972Z,7.70
2019-02-15T22:53:06.428Z,8.73
2019-02-15T22:55:35.905Z,5.87
2019-02-15T22:58:05.352Z,9.40
2019-02-15T23:00:49.328Z,6.07
2019-02-15T23:03:22.098Z,8.40
2019-02-15T23:05:51.626Z,6.08
2019-02-15T23:08:21.183Z,6.77
2019-02-15T23:10:50.704Z,7.17
2019-02-15T23:13:20.174Z,5.70
2019-02-15T23:15:49.634Z,7.62
2019-02-15T23:18:19.235Z,6.27
2019-02-15T23:20:48.665Z,6.80
2019-02-15T23:23:18.116Z,8.13
2019-02-15T23:25:47.606Z,7.85
2019-02-15T23:28:17.044Z,8.00
2019-02-15T23:30:46.511Z,7.53
2019-02-15T23:33:15.984Z,6.10
2019-02-15T23:35:45.511Z,5.33
2019-02-15T23:38:14.963Z,6.97
2019-02-15T23:40:44.440Z,5.80
2019-02-15T23:43:13.905Z,9.80
2019-02-15T23:45:44.957Z,6.40
2019-02-15T23:48:14.636Z,6.13
2019-02-15T23:50:44.101Z,6.33
2019-02-15T23:53:13.566Z,10.80
2019-02-15T23:55:43.019Z,7.90
2019-02-15T23:58:12.494Z,8.00
